Terminal Aerodrome Forecast
Issued by NWS Missoula, MT

Home | Current Version | Previous Version | Text Only | Print | Product List | Glossary On
Versions: 1 2 3 4 5 6 7 8 9 10 11 12 13 14 15 16 17 18 19 20 21 22
839
FTUS45 KMSO 141738
TAFGPI
TAF
KGPI 141738Z 1418/1518 17011KT P6SM SCT040 OVC060
     FM150300 16009KT P6SM VCSH SCT030 OVC050
     FM150900 18005KT P6SM -SHRA BKN025 OVC050
     FM151500 18010G20KT P6SM VCSH OVC030=

USA.gov is the U.S. government's official web portal to all federal, state and local government web resources and services.